Bert Mooney Airport
KBTM : now visible

Airfield :











YOU CAN JOIN US ON...

 
LOGIN :

Register | Disclaimer

   EN    FR    IT 

 









Legend :    VFR   Marginal VFR   IFR   Intensive IFR   Very Intensive IFR
Visi :
Ceiling :
>= 8 km
>= 3000ft
5 to 8 km
1000 to 3000 ft
1500m to 5 km
500 to 1000 ft
800 to 1500m
200 to 500 ft
< 800m
< 200 ft
Symbols :   Thunderstorms  Fog  Heavy snow  Heavy precipitations  Wind > 20 kt






- Airport Elevation : 5550 ft
- IATA code : BTM


KBTM - Bert Mooney

CURRENT METAR :
  • 080653Z AUTO 23012G21KT 10SM FEW090 01/M06 A3003 RMK AO2 SLP181 T00111056 400441050

EXPIRED METARs :
  • 080553Z AUTO 24009G19KT 10SM SCT110 02/M06 A3004 RMK AO2 SLP188 T00221056 10039 21017 58005
  • 080453Z AUTO 24009G19KT 10SM SCT070 BKN090 OVC110 02/M06 A3006 RMK AO2 SLP194 T00221056

TAF KBTM
Valid from the 08 at 06:00 until the 09 at 06:00 UTC


080520Z 0806/0906 23008KT P6SM BKN060 OVC100
FM081000 28014G26KT 4SM -SN BR SCT025 OVC040 WS010/25040KT
FM081200 28012G20KT P6SM VCSH OVC050
FM081600 28016G26KT P6SM SCT060
FM090100 32008KT P6SM SKC
KZLC FIR / North America



MET'MAP, your aeronautical weather chart ! - Copyright ORBIFLY December 2007 - Disclaimer

ORBIFLY MET'MAP TEAM :

Programming & Development : Alexandra Zaïnal
Original concept : Baudouin d'Aumeries
Technical & hardware support : Manuel Goepfert
Assistance : Marc-Olivier Méhu




SOURCES & CREDITS :

   NOAA       Earth
Advisory